sensor_id;sensor_type;location;lat;lon;timestamp;P1;durP1;ratioP1;P2;durP2;ratioP2
568;SDS011;269;48.884;9.192;2024-01-15T00:00:49;22.13;;;12.00;;
568;SDS011;269;48.884;9.192;2024-01-15T00:03:16;22.50;;;12.95;;
568;SDS011;269;48.884;9.192;2024-01-15T00:05:43;24.90;;;12.77;;
568;SDS011;269;48.884;9.192;2024-01-15T00:08:11;25.80;;;13.45;;
568;SDS011;269;48.884;9.192;2024-01-15T00:10:37;21.90;;;12.45;;
568;SDS011;269;48.884;9.192;2024-01-15T00:13:05;22.90;;;13.02;;
568;SDS011;269;48.884;9.192;2024-01-15T00:15:32;25.60;;;12.20;;
568;SDS011;269;48.884;9.192;2024-01-15T00:17:58;23.83;;;13.20;;
568;SDS011;269;48.884;9.192;2024-01-15T00:20:25;22.70;;;12.65;;
568;SDS011;269;48.884;9.192;2024-01-15T00:22:51;25.23;;;13.90;;
568;SDS011;269;48.884;9.192;2024-01-15T00:25:19;23.98;;;12.00;;
568;SDS011;269;48.884;9.192;2024-01-15T00:27:46;22.08;;;12.65;;
568;SDS011;269;48.884;9.192;2024-01-15T00:30:13;24.05;;;13.27;;
568;SDS011;269;48.884;9.192;2024-01-15T00:32:40;24.00;;;12.90;;
568;SDS011;269;48.884;9.192;2024-01-15T00:35:06;23.75;;;13.07;;
568;SDS011;269;48.884;9.192;2024-01-15T00:37:33;22.55;;;11.13;;
568;SDS011;269;48.884;9.192;2024-01-15T00:40:00;20.30;;;11.77;;
568;SDS011;269;48.884;9.192;2024-01-15T00:42:28;21.17;;;11.32;;
568;SDS011;269;48.884;9.192;2024-01-15T00:44:55;23.02;;;11.48;;
568;SDS011;269;48.884;9.192;2024-01-15T00:47:21;18.67;;;10.98;;
568;SDS011;269;48.884;9.192;2024-01-15T00:49:48;20.05;;;10.50;;
568;SDS011;269;48.884;9.192;2024-01-15T00:52:14;19.73;;;10.95;;
568;SDS011;269;48.884;9.192;2024-01-15T00:54:41;22.05;;;10.30;;
568;SDS011;269;48.884;9.192;2024-01-15T00:57:07;17.52;;;9.93;;
568;SDS011;269;48.884;9.192;2024-01-15T00:59:35;22.63;;;11.52;;
568;SDS011;269;48.884;9.192;2024-01-15T01:02:03;20.77;;;9.80;;
568;SDS011;269;48.884;9.192;2024-01-15T01:04:29;17.95;;;9.40;;
568;SDS011;269;48.884;9.192;2024-01-15T01:06:56;18.42;;;11.23;;
568;SDS011;269;48.884;9.192;2024-01-15T01:09:22;17.83;;;10.75;;
568;SDS011;269;48.884;9.192;2024-01-15T01:11:49;17.88;;;10.07;;
568;SDS011;269;48.884;9.192;2024-01-15T01:14:16;21.10;;;10.20;;
568;SDS011;269;48.884;9.192;2024-01-15T01:16:44;21.58;;;11.38;;
568;SDS011;269;48.884;9.192;2024-01-15T01:19:10;17.02;;;10.88;;
568;SDS011;269;48.884;9.192;2024-01-15T01:21:37;17.73;;;9.68;;
568;SDS011;269;48.884;9.192;2024-01-15T01:24:03;23.23;;;10.32;;
568;SDS011;269;48.884;9.192;2024-01-15T01:26:30;17.50;;;9.60;;
568;SDS011;269;48.884;9.192;2024-01-15T01:28:57;21.13;;;11.02;;
568;SDS011;269;48.884;9.192;2024-01-15T01:31:24;19.92;;;9.45;;
568;SDS011;269;48.884;9.192;2024-01-15T01:33:52;16.10;;;10.32;;
568;SDS011;269;48.884;9.192;2024-01-15T01:36:19;16.80;;;9.60;;
568;SDS011;269;48.884;9.192;2024-01-15T01:38:45;16.42;;;9.55;;
568;SDS011;269;48.884;9.192;2024-01-15T01:41:12;15.73;;;8.43;;
568;SDS011;269;48.884;9.192;2024-01-15T01:43:38;16.85;;;9.40;;
568;SDS011;269;48.884;9.192;2024-01-15T01:46:05;20.17;;;10.27;;
568;SDS011;269;48.884;9.192;2024-01-15T01:48:32;17.75;;;10.18;;
568;SDS011;269;48.884;9.192;2024-01-15T01:51:01;16.92;;;9.27;;
568;SDS011;269;48.884;9.192;2024-01-15T01:53:29;17.40;;;9.65;;
568;SDS011;269;48.884;9.192;2024-01-15T01:55:55;17.38;;;10.25;;
568;SDS011;269;48.884;9.192;2024-01-15T01:58:23;16.55;;;9.23;;
568;SDS011;269;48.884;9.192;2024-01-15T02:00:50;18.95;;;9.40;;
568;SDS011;269;48.884;9.192;2024-01-15T02:03:17;16.75;;;9.60;;
568;SDS011;269;48.884;9.192;2024-01-15T02:05:43;16.27;;;10.20;;
568;SDS011;269;48.884;9.192;2024-01-15T02:08:12;16.70;;;9.40;;
568;SDS011;269;48.884;9.192;2024-01-15T02:10:38;17.63;;;10.85;;
568;SDS011;269;48.884;9.192;2024-01-15T02:13:08;15.45;;;9.38;;
568;SDS011;269;48.884;9.192;2024-01-15T02:15:35;17.48;;;10.48;;
568;SDS011;269;48.884;9.192;2024-01-15T02:18:01;12.88;;;7.63;;
568;SDS011;269;48.884;9.192;2024-01-15T02:20:29;14.35;;;9.00;;
568;SDS011;269;48.884;9.192;2024-01-15T02:23:03;14.85;;;9.27;;
568;SDS011;269;48.884;9.192;2024-01-15T02:25:33;14.82;;;9.10;;
568;SDS011;269;48.884;9.192;2024-01-15T02:27:59;15.07;;;9.40;;
568;SDS011;269;48.884;9.192;2024-01-15T02:30:26;15.77;;;9.10;;
568;SDS011;269;48.884;9.192;2024-01-15T02:32:53;16.70;;;9.50;;
568;SDS011;269;48.884;9.192;2024-01-15T02:35:20;13.93;;;8.40;;
568;SDS011;269;48.884;9.192;2024-01-15T02:37:48;11.43;;;8.00;;
568;SDS011;269;48.884;9.192;2024-01-15T02:40:16;15.10;;;8.70;;
568;SDS011;269;48.884;9.192;2024-01-15T02:42:42;14.55;;;8.50;;
568;SDS011;269;48.884;9.192;2024-01-15T02:45:09;13.95;;;9.10;;
568;SDS011;269;48.884;9.192;2024-01-15T02:47:36;13.50;;;7.95;;
568;SDS011;269;48.884;9.192;2024-01-15T02:50:02;12.98;;;7.45;;
568;SDS011;269;48.884;9.192;2024-01-15T02:52:29;13.30;;;8.48;;
568;SDS011;269;48.884;9.192;2024-01-15T02:54:56;13.65;;;8.25;;
568;SDS011;269;48.884;9.192;2024-01-15T02:57:24;14.57;;;8.20;;
568;SDS011;269;48.884;9.192;2024-01-15T02:59:51;11.75;;;7.25;;
568;SDS011;269;48.884;9.192;2024-01-15T03:02:17;14.02;;;8.10;;
568;SDS011;269;48.884;9.192;2024-01-15T03:04:44;13.65;;;7.85;;
568;SDS011;269;48.884;9.192;2024-01-15T03:07:11;13.63;;;8.88;;
568;SDS011;269;48.884;9.192;2024-01-15T03:09:38;14.60;;;7.93;;
568;SDS011;269;48.884;9.192;2024-01-15T03:12:04;12.82;;;8.10;;
568;SDS011;269;48.884;9.192;2024-01-15T03:14:33;14.60;;;9.70;;
568;SDS011;269;48.884;9.192;2024-01-15T03:16:59;13.98;;;7.90;;
568;SDS011;269;48.884;9.192;2024-01-15T03:19:26;17.05;;;9.05;;
568;SDS011;269;48.884;9.192;2024-01-15T03:21:53;16.08;;;8.93;;
568;SDS011;269;48.884;9.192;2024-01-15T03:24:20;15.93;;;9.50;;
568;SDS011;269;48.884;9.192;2024-01-15T03:26:46;16.08;;;10.00;;
568;SDS011;269;48.884;9.192;2024-01-15T03:29:13;15.77;;;8.30;;
568;SDS011;269;48.884;9.192;2024-01-15T03:31:40;15.35;;;8.95;;
568;SDS011;269;48.884;9.192;2024-01-15T03:34:07;12.75;;;8.45;;
568;SDS011;269;48.884;9.192;2024-01-15T03:36:33;14.68;;;8.15;;
568;SDS011;269;48.884;9.192;2024-01-15T03:39:00;16.23;;;8.43;;
568;SDS011;269;48.884;9.192;2024-01-15T03:41:27;13.60;;;7.85;;
568;SDS011;269;48.884;9.192;2024-01-15T03:43:53;13.73;;;8.55;;
568;SDS011;269;48.884;9.192;2024-01-15T03:46:20;13.02;;;8.40;;
568;SDS011;269;48.884;9.192;2024-01-15T03:48:48;12.27;;;7.80;;
568;SDS011;269;48.884;9.192;2024-01-15T03:51:15;14.65;;;8.77;;
568;SDS011;269;48.884;9.192;2024-01-15T03:53:43;12.63;;;8.15;;
568;SDS011;269;48.884;9.192;2024-01-15T03:56:09;13.38;;;8.27;;
568;SDS011;269;48.884;9.192;2024-01-15T03:58:36;13.02;;;8.48;;
568;SDS011;269;48.884;9.192;2024-01-15T04:01:02;11.85;;;7.68;;
568;SDS011;269;48.884;9.192;2024-01-15T04:03:29;14.98;;;8.98;;
568;SDS011;269;48.884;9.192;2024-01-15T04:05:57;12.48;;;7.75;;
568;SDS011;269;48.884;9.192;2024-01-15T04:08:24;12.65;;;7.63;;
568;SDS011;269;48.884;9.192;2024-01-15T04:10:50;11.05;;;8.05;;
568;SDS011;269;48.884;9.192;2024-01-15T04:13:17;12.90;;;8.48;;
568;SDS011;269;48.884;9.192;2024-01-15T04:15:43;12.90;;;8.45;;
568;SDS011;269;48.884;9.192;2024-01-15T04:18:10;10.65;;;6.85;;
568;SDS011;269;48.884;9.192;2024-01-15T04:20:36;11.07;;;7.50;;
568;SDS011;269;48.884;9.192;2024-01-15T04:23:04;11.05;;;7.28;;
568;SDS011;269;48.884;9.192;2024-01-15T04:25:31;10.10;;;7.20;;
568;SDS011;269;48.884;9.192;2024-01-15T04:27:57;11.30;;;5.82;;
568;SDS011;269;48.884;9.192;2024-01-15T04:30:24;12.02;;;8.10;;
568;SDS011;269;48.884;9.192;2024-01-15T04:32:51;12.55;;;7.80;;
568;SDS011;269;48.884;9.192;2024-01-15T04:35:17;8.98;;;6.55;;
568;SDS011;269;48.884;9.192;2024-01-15T04:37:44;12.00;;;8.02;;
568;SDS011;269;48.884;9.192;2024-01-15T04:40:12;8.63;;;6.82;;
568;SDS011;269;48.884;9.192;2024-01-15T04:42:39;11.02;;;6.05;;
568;SDS011;269;48.884;9.192;2024-01-15T04:45:06;9.98;;;6.40;;
568;SDS011;269;48.884;9.192;2024-01-15T04:47:33;8.93;;;7.13;;
568;SDS011;269;48.884;9.192;2024-01-15T04:50:02;10.98;;;7.28;;
568;SDS011;269;48.884;9.192;2024-01-15T04:52:28;8.68;;;6.25;;
568;SDS011;269;48.884;9.192;2024-01-15T04:54:55;10.38;;;6.95;;
568;SDS011;269;48.884;9.192;2024-01-15T04:57:23;9.18;;;6.30;;
568;SDS011;269;48.884;9.192;2024-01-15T04:59:50;9.68;;;6.80;;
568;SDS011;269;48.884;9.192;2024-01-15T05:02:17;8.68;;;6.57;;
568;SDS011;269;48.884;9.192;2024-01-15T05:04:43;8.43;;;5.60;;
568;SDS011;269;48.884;9.192;2024-01-15T05:07:10;9.68;;;6.50;;
568;SDS011;269;48.884;9.192;2024-01-15T05:09:37;8.48;;;6.53;;
568;SDS011;269;48.884;9.192;2024-01-15T05:12:03;9.90;;;6.80;;
568;SDS011;269;48.884;9.192;2024-01-15T05:14:32;8.75;;;5.68;;
568;SDS011;269;48.884;9.192;2024-01-15T05:16:58;8.70;;;6.00;;
568;SDS011;269;48.884;9.192;2024-01-15T05:19:25;9.27;;;6.68;;
568;SDS011;269;48.884;9.192;2024-01-15T05:21:52;9.40;;;6.38;;
568;SDS011;269;48.884;9.192;2024-01-15T05:24:19;9.65;;;6.28;;
568;SDS011;269;48.884;9.192;2024-01-15T05:26:45;9.98;;;7.00;;
568;SDS011;269;48.884;9.192;2024-01-15T05:29:12;12.00;;;7.15;;
568;SDS011;269;48.884;9.192;2024-01-15T05:31:40;12.05;;;7.00;;
568;SDS011;269;48.884;9.192;2024-01-15T05:34:06;10.25;;;6.93;;
568;SDS011;269;48.884;9.192;2024-01-15T05:36:33;10.98;;;7.20;;
568;SDS011;269;48.884;9.192;2024-01-15T05:39:00;9.75;;;6.75;;
568;SDS011;269;48.884;9.192;2024-01-15T05:41:28;10.52;;;7.05;;
568;SDS011;269;48.884;9.192;2024-01-15T05:43:54;10.55;;;7.18;;
568;SDS011;269;48.884;9.192;2024-01-15T05:46:21;11.18;;;7.10;;
568;SDS011;269;48.884;9.192;2024-01-15T05:48:49;11.10;;;7.25;;
568;SDS011;269;48.884;9.192;2024-01-15T05:51:15;10.30;;;7.10;;
568;SDS011;269;48.884;9.192;2024-01-15T05:53:42;10.45;;;6.75;;
568;SDS011;269;48.884;9.192;2024-01-15T05:56:09;10.88;;;7.05;;
568;SDS011;269;48.884;9.192;2024-01-15T05:58:37;10.55;;;7.35;;
568;SDS011;269;48.884;9.192;2024-01-15T06:01:03;10.48;;;7.05;;
568;SDS011;269;48.884;9.192;2024-01-15T06:03:30;11.18;;;7.85;;
568;SDS011;269;48.884;9.192;2024-01-15T06:05:58;10.10;;;6.95;;
568;SDS011;269;48.884;9.192;2024-01-15T06:08:24;13.75;;;8.02;;
568;SDS011;269;48.884;9.192;2024-01-15T06:10:52;13.52;;;8.55;;
568;SDS011;269;48.884;9.192;2024-01-15T06:13:19;10.00;;;7.70;;
568;SDS011;269;48.884;9.192;2024-01-15T06:15:45;10.38;;;7.15;;
568;SDS011;269;48.884;9.192;2024-01-15T06:18:12;8.20;;;6.80;;
568;SDS011;269;48.884;9.192;2024-01-15T06:20:39;10.77;;;7.22;;
568;SDS011;269;48.884;9.192;2024-01-15T06:23:07;10.00;;;7.78;;
568;SDS011;269;48.884;9.192;2024-01-15T06:25:33;12.82;;;7.20;;
568;SDS011;269;48.884;9.192;2024-01-15T06:28:00;11.05;;;6.32;;
568;SDS011;269;48.884;9.192;2024-01-15T06:30:26;10.38;;;6.45;;
568;SDS011;269;48.884;9.192;2024-01-15T06:32:55;9.82;;;7.13;;
568;SDS011;269;48.884;9.192;2024-01-15T06:35:21;8.02;;;6.13;;
568;SDS011;269;48.884;9.192;2024-01-15T06:37:48;10.05;;;7.18;;
568;SDS011;269;48.884;9.192;2024-01-15T06:40:16;10.55;;;6.32;;
568;SDS011;269;48.884;9.192;2024-01-15T06:42:43;8.25;;;6.00;;
568;SDS011;269;48.884;9.192;2024-01-15T06:45:09;7.07;;;5.93;;
568;SDS011;269;48.884;9.192;2024-01-15T06:47:36;7.00;;;5.95;;
568;SDS011;269;48.884;9.192;2024-01-15T06:50:04;8.10;;;6.45;;
568;SDS011;269;48.884;9.192;2024-01-15T06:52:32;10.38;;;6.88;;
568;SDS011;269;48.884;9.192;2024-01-15T06:54:58;9.75;;;6.35;;
568;SDS011;269;48.884;9.192;2024-01-15T06:57:26;10.68;;;6.68;;
568;SDS011;269;48.884;9.192;2024-01-15T06:59:53;9.32;;;6.70;;
568;SDS011;269;48.884;9.192;2024-01-15T07:02:20;10.70;;;7.15;;
568;SDS011;269;48.884;9.192;2024-01-15T07:04:47;6.85;;;5.13;;
568;SDS011;269;48.884;9.192;2024-01-15T07:07:13;8.82;;;6.55;;
568;SDS011;269;48.884;9.192;2024-01-15T07:09:40;9.48;;;6.35;;
568;SDS011;269;48.884;9.192;2024-01-15T07:12:08;7.75;;;6.50;;
568;SDS011;269;48.884;9.192;2024-01-15T07:14:37;9.38;;;6.75;;
568;SDS011;269;48.884;9.192;2024-01-15T07:17:03;10.30;;;7.18;;
568;SDS011;269;48.884;9.192;2024-01-15T07:19:31;8.23;;;6.22;;
568;SDS011;269;48.884;9.192;2024-01-15T07:21:57;11.02;;;7.20;;
568;SDS011;269;48.884;9.192;2024-01-15T07:24:24;9.70;;;6.90;;
568;SDS011;269;48.884;9.192;2024-01-15T07:26:51;11.48;;;7.20;;
568;SDS011;269;48.884;9.192;2024-01-15T07:29:17;10.40;;;6.85;;
568;SDS011;269;48.884;9.192;2024-01-15T07:31:48;10.95;;;7.10;;
568;SDS011;269;48.884;9.192;2024-01-15T07:34:15;10.48;;;7.35;;
568;SDS011;269;48.884;9.192;2024-01-15T07:36:43;9.07;;;6.82;;
568;SDS011;269;48.884;9.192;2024-01-15T07:39:10;10.80;;;6.53;;
568;SDS011;269;48.884;9.192;2024-01-15T07:41:36;8.93;;;6.75;;
568;SDS011;269;48.884;9.192;2024-01-15T07:44:05;8.98;;;6.93;;
568;SDS011;269;48.884;9.192;2024-01-15T07:46:32;10.70;;;6.25;;
568;SDS011;269;48.884;9.192;2024-01-15T07:49:01;10.80;;;7.43;;
568;SDS011;269;48.884;9.192;2024-01-15T07:51:28;8.82;;;5.93;;
568;SDS011;269;48.884;9.192;2024-01-15T07:53:55;9.25;;;6.35;;
568;SDS011;269;48.884;9.192;2024-01-15T07:56:25;7.90;;;6.45;;
568;SDS011;269;48.884;9.192;2024-01-15T07:58:53;9.35;;;6.50;;
568;SDS011;269;48.884;9.192;2024-01-15T08:01:19;8.43;;;6.25;;
568;SDS011;269;48.884;9.192;2024-01-15T08:03:46;8.68;;;6.60;;
568;SDS011;269;48.884;9.192;2024-01-15T08:06:14;8.45;;;6.10;;
568;SDS011;269;48.884;9.192;2024-01-15T08:08:41;10.48;;;7.30;;
568;SDS011;269;48.884;9.192;2024-01-15T08:11:08;8.15;;;5.90;;
568;SDS011;269;48.884;9.192;2024-01-15T08:13:34;8.55;;;6.70;;
568;SDS011;269;48.884;9.192;2024-01-15T08:16:01;9.57;;;6.15;;
568;SDS011;269;48.884;9.192;2024-01-15T08:18:27;7.50;;;5.70;;
568;SDS011;269;48.884;9.192;2024-01-15T08:20:54;7.60;;;5.63;;
568;SDS011;269;48.884;9.192;2024-01-15T08:23:23;8.82;;;6.13;;
568;SDS011;269;48.884;9.192;2024-01-15T08:25:49;8.27;;;5.90;;
568;SDS011;269;48.884;9.192;2024-01-15T08:28:17;8.82;;;5.90;;
568;SDS011;269;48.884;9.192;2024-01-15T08:30:43;8.25;;;7.05;;
568;SDS011;269;48.884;9.192;2024-01-15T08:33:11;7.35;;;5.60;;
568;SDS011;269;48.884;9.192;2024-01-15T08:35:38;8.02;;;5.97;;
568;SDS011;269;48.884;9.192;2024-01-15T08:38:05;7.60;;;5.38;;
568;SDS011;269;48.884;9.192;2024-01-15T08:40:32;7.18;;;6.10;;
568;SDS011;269;48.884;9.192;2024-01-15T08:42:59;7.28;;;5.28;;
568;SDS011;269;48.884;9.192;2024-01-15T08:45:27;7.57;;;5.22;;
568;SDS011;269;48.884;9.192;2024-01-15T08:47:53;8.15;;;6.25;;
568;SDS011;269;48.884;9.192;2024-01-15T08:50:20;9.15;;;5.45;;
568;SDS011;269;48.884;9.192;2024-01-15T08:52:46;6.13;;;5.28;;
568;SDS011;269;48.884;9.192;2024-01-15T08:55:13;6.88;;;4.78;;
568;SDS011;269;48.884;9.192;2024-01-15T08:57:42;6.72;;;5.55;;
568;SDS011;269;48.884;9.192;2024-01-15T09:00:10;6.72;;;5.25;;
568;SDS011;269;48.884;9.192;2024-01-15T09:02:37;7.28;;;5.35;;
568;SDS011;269;48.884;9.192;2024-01-15T09:05:04;9.05;;;5.47;;
568;SDS011;269;48.884;9.192;2024-01-15T09:07:31;8.25;;;5.45;;
568;SDS011;269;48.884;9.192;2024-01-15T09:09:58;5.60;;;4.78;;
568;SDS011;269;48.884;9.192;2024-01-15T09:12:24;7.90;;;5.25;;
568;SDS011;269;48.884;9.192;2024-01-15T09:14:53;7.50;;;5.72;;
568;SDS011;269;48.884;9.192;2024-01-15T09:17:19;8.38;;;5.35;;
568;SDS011;269;48.884;9.192;2024-01-15T09:19:46;7.38;;;5.00;;
568;SDS011;269;48.884;9.192;2024-01-15T09:22:14;7.10;;;4.88;;
568;SDS011;269;48.884;9.192;2024-01-15T09:24:43;6.00;;;4.35;;
568;SDS011;269;48.884;9.192;2024-01-15T09:27:10;7.18;;;5.15;;
568;SDS011;269;48.884;9.192;2024-01-15T09:29:36;5.25;;;4.75;;
568;SDS011;269;48.884;9.192;2024-01-15T09:32:06;5.95;;;4.63;;
568;SDS011;269;48.884;9.192;2024-01-15T09:34:33;6.60;;;4.00;;
568;SDS011;269;48.884;9.192;2024-01-15T09:37:00;6.40;;;4.80;;
568;SDS011;269;48.884;9.192;2024-01-15T09:39:28;6.45;;;4.97;;
568;SDS011;269;48.884;9.192;2024-01-15T09:41:55;6.38;;;4.78;;
568;SDS011;269;48.884;9.192;2024-01-15T09:44:22;6.35;;;4.63;;
568;SDS011;269;48.884;9.192;2024-01-15T09:46:51;7.20;;;4.45;;
568;SDS011;269;48.884;9.192;2024-01-15T09:49:19;5.38;;;4.22;;
568;SDS011;269;48.884;9.192;2024-01-15T09:51:46;7.57;;;4.50;;
568;SDS011;269;48.884;9.192;2024-01-15T09:54:13;11.07;;;3.95;;
568;SDS011;269;48.884;9.192;2024-01-15T09:56:42;6.45;;;4.50;;
568;SDS011;269;48.884;9.192;2024-01-15T09:59:08;7.38;;;4.45;;
568;SDS011;269;48.884;9.192;2024-01-15T10:01:36;6.60;;;4.30;;
568;SDS011;269;48.884;9.192;2024-01-15T10:04:04;4.70;;;3.72;;
568;SDS011;269;48.884;9.192;2024-01-15T10:06:31;5.05;;;3.85;;
568;SDS011;269;48.884;9.192;2024-01-15T10:08:58;6.07;;;3.83;;
568;SDS011;269;48.884;9.192;2024-01-15T10:11:25;5.05;;;4.00;;
568;SDS011;269;48.884;9.192;2024-01-15T10:13:51;6.70;;;4.05;;
568;SDS011;269;48.884;9.192;2024-01-15T10:16:18;5.25;;;3.72;;
568;SDS011;269;48.884;9.192;2024-01-15T10:18:45;4.95;;;3.70;;
568;SDS011;269;48.884;9.192;2024-01-15T10:21:11;6.10;;;4.68;;
568;SDS011;269;48.884;9.192;2024-01-15T10:23:40;5.20;;;4.30;;
568;SDS011;269;48.884;9.192;2024-01-15T10:26:08;5.50;;;4.20;;
568;SDS011;269;48.884;9.192;2024-01-15T10:28:36;7.05;;;4.10;;
568;SDS011;269;48.884;9.192;2024-01-15T10:31:03;6.53;;;4.07;;
568;SDS011;269;48.884;9.192;2024-01-15T10:33:32;5.00;;;4.05;;
568;SDS011;269;48.884;9.192;2024-01-15T10:35:59;4.93;;;4.05;;
568;SDS011;269;48.884;9.192;2024-01-15T10:38:26;5.38;;;4.88;;
568;SDS011;269;48.884;9.192;2024-01-15T10:40:54;5.55;;;4.15;;
568;SDS011;269;48.884;9.192;2024-01-15T10:43:22;6.47;;;4.40;;
568;SDS011;269;48.884;9.192;2024-01-15T10:45:49;4.93;;;4.18;;
568;SDS011;269;48.884;9.192;2024-01-15T10:48:18;5.00;;;4.10;;
568;SDS011;269;48.884;9.192;2024-01-15T10:50:45;4.57;;;4.15;;
568;SDS011;269;48.884;9.192;2024-01-15T10:53:13;5.93;;;4.15;;
568;SDS011;269;48.884;9.192;2024-01-15T10:55:43;8.77;;;4.65;;
568;SDS011;269;48.884;9.192;2024-01-15T10:58:11;5.72;;;4.30;;
568;SDS011;269;48.884;9.192;2024-01-15T11:00:37;5.20;;;4.15;;
568;SDS011;269;48.884;9.192;2024-01-15T11:03:05;5.78;;;4.20;;
568;SDS011;269;48.884;9.192;2024-01-15T11:05:33;6.95;;;4.35;;
568;SDS011;269;48.884;9.192;2024-01-15T11:08:00;6.38;;;4.90;;
568;SDS011;269;48.884;9.192;2024-01-15T11:10:40;5.22;;;4.70;;
568;SDS011;269;48.884;9.192;2024-01-15T11:13:08;6.55;;;5.22;;
568;SDS011;269;48.884;9.192;2024-01-15T11:15:58;5.63;;;4.53;;
568;SDS011;269;48.884;9.192;2024-01-15T11:18:26;6.85;;;5.28;;
568;SDS011;269;48.884;9.192;2024-01-15T11:23:52;7.07;;;5.05;;
568;SDS011;269;48.884;9.192;2024-01-15T11:26:29;5.38;;;4.85;;
568;SDS011;269;48.884;9.192;2024-01-15T11:28:58;7.07;;;5.45;;
568;SDS011;269;48.884;9.192;2024-01-15T11:31:26;6.60;;;5.50;;
568;SDS011;269;48.884;9.192;2024-01-15T11:33:53;6.00;;;5.38;;
568;SDS011;269;48.884;9.192;2024-01-15T11:36:20;6.35;;;5.75;;
568;SDS011;269;48.884;9.192;2024-01-15T11:38:47;8.40;;;5.70;;
568;SDS011;269;48.884;9.192;2024-01-15T11:41:14;7.28;;;6.22;;
568;SDS011;269;48.884;9.192;2024-01-15T11:43:41;7.55;;;6.30;;
568;SDS011;269;48.884;9.192;2024-01-15T11:46:10;6.40;;;5.60;;
568;SDS011;269;48.884;9.192;2024-01-15T11:48:42;7.60;;;6.15;;
568;SDS011;269;48.884;9.192;2024-01-15T11:51:10;7.97;;;6.05;;
568;SDS011;269;48.884;9.192;2024-01-15T11:53:40;7.10;;;6.40;;
568;SDS011;269;48.884;9.192;2024-01-15T11:56:12;7.28;;;6.38;;
568;SDS011;269;48.884;9.192;2024-01-15T11:58:41;7.60;;;5.95;;
568;SDS011;269;48.884;9.192;2024-01-15T12:01:08;7.43;;;6.30;;
568;SDS011;269;48.884;9.192;2024-01-15T12:03:36;9.70;;;6.80;;
568;SDS011;269;48.884;9.192;2024-01-15T12:06:05;7.85;;;6.47;;
568;SDS011;269;48.884;9.192;2024-01-15T12:08:32;8.32;;;6.68;;
568;SDS011;269;48.884;9.192;2024-01-15T12:10:59;7.43;;;6.28;;
568;SDS011;269;48.884;9.192;2024-01-15T12:13:27;8.73;;;6.50;;
568;SDS011;269;48.884;9.192;2024-01-15T12:15:56;8.40;;;6.30;;
568;SDS011;269;48.884;9.192;2024-01-15T12:18:23;10.32;;;7.55;;
568;SDS011;269;48.884;9.192;2024-01-15T12:20:53;8.20;;;6.72;;
568;SDS011;269;48.884;9.192;2024-01-15T12:23:20;10.93;;;7.03;;
568;SDS011;269;48.884;9.192;2024-01-15T12:25:47;8.88;;;6.43;;
568;SDS011;269;48.884;9.192;2024-01-15T12:28:13;8.15;;;6.78;;
568;SDS011;269;48.884;9.192;2024-01-15T12:30:41;8.13;;;6.97;;
568;SDS011;269;48.884;9.192;2024-01-15T12:33:09;9.55;;;6.00;;
568;SDS011;269;48.884;9.192;2024-01-15T12:35:36;9.35;;;6.50;;
568;SDS011;269;48.884;9.192;2024-01-15T12:38:04;7.78;;;5.95;;
568;SDS011;269;48.884;9.192;2024-01-15T12:40:31;8.23;;;6.55;;
568;SDS011;269;48.884;9.192;2024-01-15T12:42:59;9.18;;;5.40;;
568;SDS011;269;48.884;9.192;2024-01-15T12:45:26;6.82;;;5.45;;
568;SDS011;269;48.884;9.192;2024-01-15T12:47:53;7.65;;;5.38;;
568;SDS011;269;48.884;9.192;2024-01-15T12:50:24;7.18;;;5.50;;
568;SDS011;269;48.884;9.192;2024-01-15T12:52:51;6.72;;;5.57;;
568;SDS011;269;48.884;9.192;2024-01-15T12:55:19;10.32;;;5.88;;
568;SDS011;269;48.884;9.192;2024-01-15T12:57:45;9.85;;;6.20;;
568;SDS011;269;48.884;9.192;2024-01-15T13:00:13;9.15;;;5.85;;
568;SDS011;269;48.884;9.192;2024-01-15T13:02:41;7.70;;;5.50;;
568;SDS011;269;48.884;9.192;2024-01-15T13:05:08;11.68;;;6.10;;
568;SDS011;269;48.884;9.192;2024-01-15T13:07:36;6.07;;;5.38;;
568;SDS011;269;48.884;9.192;2024-01-15T13:10:02;6.93;;;5.10;;
568;SDS011;269;48.884;9.192;2024-01-15T13:12:30;7.68;;;5.78;;
568;SDS011;269;48.884;9.192;2024-01-15T13:14:58;6.25;;;5.43;;
568;SDS011;269;48.884;9.192;2024-01-15T13:17:24;6.30;;;4.85;;
568;SDS011;269;48.884;9.192;2024-01-15T13:19:51;5.60;;;5.00;;
568;SDS011;269;48.884;9.192;2024-01-15T13:22:18;6.18;;;4.68;;
568;SDS011;269;48.884;9.192;2024-01-15T13:24:45;5.63;;;4.30;;
568;SDS011;269;48.884;9.192;2024-01-15T13:27:12;6.03;;;4.07;;
568;SDS011;269;48.884;9.192;2024-01-15T13:29:40;4.75;;;3.95;;
568;SDS011;269;48.884;9.192;2024-01-15T13:32:07;6.28;;;3.80;;
568;SDS011;269;48.884;9.192;2024-01-15T13:34:35;4.68;;;3.67;;
568;SDS011;269;48.884;9.192;2024-01-15T13:37:01;5.38;;;3.78;;
568;SDS011;269;48.884;9.192;2024-01-15T13:39:28;6.25;;;4.63;;
568;SDS011;269;48.884;9.192;2024-01-15T13:41:58;5.80;;;5.22;;
568;SDS011;269;48.884;9.192;2024-01-15T13:44:24;4.68;;;4.25;;
568;SDS011;269;48.884;9.192;2024-01-15T13:46:54;5.00;;;4.50;;
568;SDS011;269;48.884;9.192;2024-01-15T13:49:22;6.47;;;4.60;;
568;SDS011;269;48.884;9.192;2024-01-15T13:51:49;5.32;;;4.50;;
568;SDS011;269;48.884;9.192;2024-01-15T13:54:15;6.50;;;4.60;;
568;SDS011;269;48.884;9.192;2024-01-15T13:56:42;6.65;;;5.88;;
568;SDS011;269;48.884;9.192;2024-01-15T13:59:09;5.93;;;4.80;;
568;SDS011;269;48.884;9.192;2024-01-15T14:01:36;5.75;;;5.25;;
568;SDS011;269;48.884;9.192;2024-01-15T14:04:04;6.05;;;5.35;;
568;SDS011;269;48.884;9.192;2024-01-15T14:06:30;5.72;;;5.22;;
568;SDS011;269;48.884;9.192;2024-01-15T14:08:57;6.70;;;5.40;;
568;SDS011;269;48.884;9.192;2024-01-15T14:11:24;7.63;;;6.10;;
568;SDS011;269;48.884;9.192;2024-01-15T14:13:50;7.85;;;6.40;;
568;SDS011;269;48.884;9.192;2024-01-15T14:16:17;8.18;;;6.65;;
568;SDS011;269;48.884;9.192;2024-01-15T14:18:44;7.88;;;6.57;;
568;SDS011;269;48.884;9.192;2024-01-15T14:21:12;7.05;;;6.35;;
568;SDS011;269;48.884;9.192;2024-01-15T14:23:39;8.77;;;6.97;;
568;SDS011;269;48.884;9.192;2024-01-15T14:26:06;7.32;;;6.50;;
568;SDS011;269;48.884;9.192;2024-01-15T14:28:32;7.97;;;6.93;;
568;SDS011;269;48.884;9.192;2024-01-15T14:30:59;9.15;;;7.35;;
568;SDS011;269;48.884;9.192;2024-01-15T14:33:26;7.75;;;6.95;;
568;SDS011;269;48.884;9.192;2024-01-15T14:35:52;8.30;;;7.10;;
568;SDS011;269;48.884;9.192;2024-01-15T14:38:20;9.52;;;8.07;;
568;SDS011;269;48.884;9.192;2024-01-15T14:40:47;8.20;;;7.40;;
568;SDS011;269;48.884;9.192;2024-01-15T14:43:14;9.02;;;7.50;;
568;SDS011;269;48.884;9.192;2024-01-15T14:45:42;8.82;;;7.82;;
568;SDS011;269;48.884;9.192;2024-01-15T14:48:09;7.82;;;7.00;;
568;SDS011;269;48.884;9.192;2024-01-15T14:50:37;9.15;;;7.60;;
568;SDS011;269;48.884;9.192;2024-01-15T14:53:04;8.65;;;6.95;;
568;SDS011;269;48.884;9.192;2024-01-15T14:55:32;8.02;;;7.32;;
568;SDS011;269;48.884;9.192;2024-01-15T14:57:59;9.20;;;7.70;;
568;SDS011;269;48.884;9.192;2024-01-15T15:00:26;8.40;;;7.55;;
568;SDS011;269;48.884;9.192;2024-01-15T15:02:52;9.88;;;8.90;;
568;SDS011;269;48.884;9.192;2024-01-15T15:05:19;9.77;;;8.77;;
568;SDS011;269;48.884;9.192;2024-01-15T15:07:45;10.05;;;7.70;;
568;SDS011;269;48.884;9.192;2024-01-15T15:10:12;9.00;;;7.25;;
568;SDS011;269;48.884;9.192;2024-01-15T15:12:41;10.10;;;9.10;;
568;SDS011;269;48.884;9.192;2024-01-15T15:15:08;10.45;;;8.98;;
568;SDS011;269;48.884;9.192;2024-01-15T15:17:36;10.80;;;8.73;;
568;SDS011;269;48.884;9.192;2024-01-15T15:20:02;9.57;;;8.60;;
568;SDS011;269;48.884;9.192;2024-01-15T15:22:30;9.00;;;7.68;;
568;SDS011;269;48.884;9.192;2024-01-15T15:24:57;10.30;;;8.75;;
568;SDS011;269;48.884;9.192;2024-01-15T15:27:24;8.82;;;7.55;;
568;SDS011;269;48.884;9.192;2024-01-15T15:29:53;9.02;;;7.45;;
568;SDS011;269;48.884;9.192;2024-01-15T15:32:20;8.57;;;7.70;;
568;SDS011;269;48.884;9.192;2024-01-15T15:34:47;8.65;;;7.57;;
568;SDS011;269;48.884;9.192;2024-01-15T15:37:13;8.95;;;7.57;;
568;SDS011;269;48.884;9.192;2024-01-15T15:39:42;8.23;;;7.18;;